Archival Weather

Chicago O'Hare International

Chicago, Illinois (KORD)

Report from: Monday, January 23, 2023 3:51 PM CST
Current time: Thursday, July 18, 2024 9:56 PM CDT

Current weather – Weather history – Daily summaries
Weather forecast

Temperature-2.2°C (28.0°F)
Wind chill-8.3°C (17.0°F)
Dew point-6.1°C (21.0°F)
Winds 12 kts (6.2 m/s, 13.8 mph) West-Southwest (240°)
Wind gusts 19 kts (9.8 m/s, 21.9 mph)
Visibility10 mi. (16.1 km)
Clouds Few clouds 1,200 ft. (366 m)
Ceiling: Broken clouds 25,000 ft. (7,620 m)
Altimeter30.06 in.Hg (1018 mB)
Relative humidity75 %
Density altitude-2,247 ft. (-685 m)
Sea-level pressure101.9 kPa (1019 mB, 30.09 in.Hg)
Remarks Automated weather observing station with precipitation discriminator
Flight conditions Visual Meteorological Conditions
Raw dataKORD 232151Z 24012G19KT 10SM FEW012 BKN250 M02/M06 A3006 RMK AO2 SLP190 T10221061
An error has occurred. This application may no longer respond until reloaded. Reload 🗙